sensor_id;sensor_type;location;lat;lon;timestamp;temperature;humidity
31131;DHT22;20292;50.944;4.034;2022-12-18T00:01:58;-1.20;99.90
31131;DHT22;20292;50.944;4.034;2022-12-18T00:04:25;-1.10;99.90
31131;DHT22;20292;50.944;4.034;2022-12-18T00:06:52;-1.10;99.90
31131;DHT22;20292;50.944;4.034;2022-12-18T00:09:18;-1.00;99.90
31131;DHT22;20292;50.944;4.034;2022-12-18T00:11:44;-1.00;99.90
31131;DHT22;20292;50.944;4.034;2022-12-18T00:14:11;-1.00;99.90
31131;DHT22;20292;50.944;4.034;2022-12-18T00:16:37;-1.10;99.90
31131;DHT22;20292;50.944;4.034;2022-12-18T00:19:03;-1.20;99.90
31131;DHT22;20292;50.944;4.034;2022-12-18T00:21:30;-1.10;99.90
31131;DHT22;20292;50.944;4.034;2022-12-18T00:23:58;-1.20;99.90
31131;DHT22;20292;50.944;4.034;2022-12-18T00:26:26;-1.20;99.90
31131;DHT22;20292;50.944;4.034;2022-12-18T00:28:53;-1.20;99.90
31131;DHT22;20292;50.944;4.034;2022-12-18T00:31:21;-1.10;99.90
31131;DHT22;20292;50.944;4.034;2022-12-18T00:33:47;-1.20;99.90
31131;DHT22;20292;50.944;4.034;2022-12-18T00:36:21;-1.10;99.90
31131;DHT22;20292;50.944;4.034;2022-12-18T00:38:47;-1.10;99.90
31131;DHT22;20292;50.944;4.034;2022-12-18T00:41:14;-1.10;99.90
31131;DHT22;20292;50.944;4.034;2022-12-18T00:44:01;-1.20;99.90
31131;DHT22;20292;50.944;4.034;2022-12-18T00:46:27;-1.40;99.90
31131;DHT22;20292;50.944;4.034;2022-12-18T00:48:52;-1.30;99.90
31131;DHT22;20292;50.944;4.034;2022-12-18T00:51:18;-1.30;99.90
31131;DHT22;20292;50.944;4.034;2022-12-18T00:53:44;-1.50;99.90
31131;DHT22;20292;50.944;4.034;2022-12-18T00:56:09;-1.60;99.90
31131;DHT22;20292;50.944;4.034;2022-12-18T00:58:35;-1.80;99.90
31131;DHT22;20292;50.944;4.034;2022-12-18T01:01:00;-1.70;99.90
31131;DHT22;20292;50.944;4.034;2022-12-18T01:03:26;-1.60;99.90
31131;DHT22;20292;50.944;4.034;2022-12-18T01:05:51;-1.50;99.90
31131;DHT22;20292;50.944;4.034;2022-12-18T01:08:17;-1.50;99.90
31131;DHT22;20292;50.944;4.034;2022-12-18T01:10:42;-1.50;99.90
31131;DHT22;20292;50.944;4.034;2022-12-18T01:13:08;-1.40;99.90
31131;DHT22;20292;50.944;4.034;2022-12-18T01:15:34;-1.40;99.90
31131;DHT22;20292;50.944;4.034;2022-12-18T01:17:59;-1.40;99.90
31131;DHT22;20292;50.944;4.034;2022-12-18T01:20:25;-1.30;99.90
31131;DHT22;20292;50.944;4.034;2022-12-18T01:22:50;-1.30;99.90
31131;DHT22;20292;50.944;4.034;2022-12-18T01:25:16;-1.30;99.90
31131;DHT22;20292;50.944;4.034;2022-12-18T01:27:42;-1.30;99.90
31131;DHT22;20292;50.944;4.034;2022-12-18T01:30:08;-1.40;99.90
31131;DHT22;20292;50.944;4.034;2022-12-18T01:32:34;-1.50;99.90
31131;DHT22;20292;50.944;4.034;2022-12-18T01:34:59;-1.50;99.90
31131;DHT22;20292;50.944;4.034;2022-12-18T01:37:25;-1.50;99.90
31131;DHT22;20292;50.944;4.034;2022-12-18T01:39:52;-1.50;99.90
31131;DHT22;20292;50.944;4.034;2022-12-18T01:42:20;-1.50;99.90
31131;DHT22;20292;50.944;4.034;2022-12-18T01:47:49;-1.50;99.90
31131;DHT22;20292;50.944;4.034;2022-12-18T01:50:37;-1.50;99.90
31131;DHT22;20292;50.944;4.034;2022-12-18T01:55:37;-1.90;99.90
31131;DHT22;20292;50.944;4.034;2022-12-18T01:58:04;-1.90;99.90
31131;DHT22;20292;50.944;4.034;2022-12-18T02:00:30;-2.00;99.90
31131;DHT22;20292;50.944;4.034;2022-12-18T02:02:55;-2.10;99.90
31131;DHT22;20292;50.944;4.034;2022-12-18T02:08:32;-2.20;99.90
31131;DHT22;20292;50.944;4.034;2022-12-18T02:19:44;-1.90;99.90
31131;DHT22;20292;50.944;4.034;2022-12-18T02:26:01;-1.90;99.90
31131;DHT22;20292;50.944;4.034;2022-12-18T02:28:07;-1.80;99.90
31131;DHT22;20292;50.944;4.034;2022-12-18T02:30:35;-1.80;99.90
31131;DHT22;20292;50.944;4.034;2022-12-18T02:33:04;-1.80;99.90
31131;DHT22;20292;50.944;4.034;2022-12-18T02:35:30;-1.70;99.90
31131;DHT22;20292;50.944;4.034;2022-12-18T02:37:57;-1.70;99.90
31131;DHT22;20292;50.944;4.034;2022-12-18T02:40:24;-1.80;99.90
31131;DHT22;20292;50.944;4.034;2022-12-18T02:42:51;-1.80;99.90
31131;DHT22;20292;50.944;4.034;2022-12-18T02:45:17;-2.00;99.90
31131;DHT22;20292;50.944;4.034;2022-12-18T02:47:46;-2.20;99.90
31131;DHT22;20292;50.944;4.034;2022-12-18T02:53:14;-2.30;99.90
31131;DHT22;20292;50.944;4.034;2022-12-18T02:58:34;-2.20;99.90
31131;DHT22;20292;50.944;4.034;2022-12-18T03:01:16;-2.10;99.90
31131;DHT22;20292;50.944;4.034;2022-12-18T03:03:52;-2.70;99.90
31131;DHT22;20292;50.944;4.034;2022-12-18T03:09:24;-2.80;99.90
31131;DHT22;20292;50.944;4.034;2022-12-18T03:11:56;-2.70;99.90
31131;DHT22;20292;50.944;4.034;2022-12-18T03:14:43;-2.70;99.90
31131;DHT22;20292;50.944;4.034;2022-12-18T03:17:13;-2.50;99.90
31131;DHT22;20292;50.944;4.034;2022-12-18T03:19:41;-2.50;99.90
31131;DHT22;20292;50.944;4.034;2022-12-18T03:22:09;-2.40;99.90
31131;DHT22;20292;50.944;4.034;2022-12-18T03:24:36;-2.50;99.90
31131;DHT22;20292;50.944;4.034;2022-12-18T03:27:07;-2.40;99.90
31131;DHT22;20292;50.944;4.034;2022-12-18T03:29:38;-2.40;99.90
31131;DHT22;20292;50.944;4.034;2022-12-18T03:32:09;-2.30;99.90
31131;DHT22;20292;50.944;4.034;2022-12-18T03:34:37;-2.30;99.90
31131;DHT22;20292;50.944;4.034;2022-12-18T03:37:05;-2.30;99.90
31131;DHT22;20292;50.944;4.034;2022-12-18T03:39:31;-2.40;99.90
31131;DHT22;20292;50.944;4.034;2022-12-18T03:42:15;-2.30;99.90
31131;DHT22;20292;50.944;4.034;2022-12-18T03:44:53;-2.30;99.90
31131;DHT22;20292;50.944;4.034;2022-12-18T03:52:41;-2.30;99.90
31131;DHT22;20292;50.944;4.034;2022-12-18T03:55:09;-2.30;99.90
31131;DHT22;20292;50.944;4.034;2022-12-18T03:57:36;-2.30;99.90
31131;DHT22;20292;50.944;4.034;2022-12-18T04:00:09;-2.30;99.90
31131;DHT22;20292;50.944;4.034;2022-12-18T04:02:38;-2.50;99.90
31131;DHT22;20292;50.944;4.034;2022-12-18T04:05:07;-2.60;99.90
31131;DHT22;20292;50.944;4.034;2022-12-18T04:07:33;-2.50;99.90
31131;DHT22;20292;50.944;4.034;2022-12-18T04:10:01;-2.50;99.90
31131;DHT22;20292;50.944;4.034;2022-12-18T04:12:29;-2.50;99.90
31131;DHT22;20292;50.944;4.034;2022-12-18T04:14:54;-2.40;99.90
31131;DHT22;20292;50.944;4.034;2022-12-18T04:17:20;-2.40;99.90
31131;DHT22;20292;50.944;4.034;2022-12-18T04:19:46;-2.50;99.90
31131;DHT22;20292;50.944;4.034;2022-12-18T04:22:12;-2.50;99.90
31131;DHT22;20292;50.944;4.034;2022-12-18T04:24:38;-2.40;99.90
31131;DHT22;20292;50.944;4.034;2022-12-18T04:27:04;-2.40;99.90
31131;DHT22;20292;50.944;4.034;2022-12-18T04:29:29;-2.40;99.90
31131;DHT22;20292;50.944;4.034;2022-12-18T04:31:55;-2.40;99.90
31131;DHT22;20292;50.944;4.034;2022-12-18T04:34:21;-2.40;99.90
31131;DHT22;20292;50.944;4.034;2022-12-18T04:36:46;-2.40;99.90
31131;DHT22;20292;50.944;4.034;2022-12-18T04:39:13;-2.50;99.90
31131;DHT22;20292;50.944;4.034;2022-12-18T04:41:39;-2.40;99.90
31131;DHT22;20292;50.944;4.034;2022-12-18T04:44:04;-2.40;99.90
31131;DHT22;20292;50.944;4.034;2022-12-18T04:46:30;-2.30;99.90
31131;DHT22;20292;50.944;4.034;2022-12-18T04:48:55;-2.40;99.90
31131;DHT22;20292;50.944;4.034;2022-12-18T04:51:21;-2.50;99.90
31131;DHT22;20292;50.944;4.034;2022-12-18T04:53:47;-2.40;99.90
31131;DHT22;20292;50.944;4.034;2022-12-18T04:56:14;-2.60;99.90
31131;DHT22;20292;50.944;4.034;2022-12-18T04:58:41;-2.90;99.90
31131;DHT22;20292;50.944;4.034;2022-12-18T05:01:08;-3.00;99.90
31131;DHT22;20292;50.944;4.034;2022-12-18T05:03:35;-3.10;99.90
31131;DHT22;20292;50.944;4.034;2022-12-18T05:06:00;-3.30;99.90
31131;DHT22;20292;50.944;4.034;2022-12-18T05:08:26;-3.40;99.90
31131;DHT22;20292;50.944;4.034;2022-12-18T05:11:03;-3.70;99.90
31131;DHT22;20292;50.944;4.034;2022-12-18T05:13:29;-3.90;99.90
31131;DHT22;20292;50.944;4.034;2022-12-18T05:15:55;-3.90;99.90
31131;DHT22;20292;50.944;4.034;2022-12-18T05:18:21;-3.70;99.90
31131;DHT22;20292;50.944;4.034;2022-12-18T05:20:47;-3.60;99.90
31131;DHT22;20292;50.944;4.034;2022-12-18T05:23:14;-3.50;99.90
31131;DHT22;20292;50.944;4.034;2022-12-18T05:25:39;-3.50;99.90
31131;DHT22;20292;50.944;4.034;2022-12-18T05:28:05;-3.40;99.90
31131;DHT22;20292;50.944;4.034;2022-12-18T05:30:30;-3.50;99.90
31131;DHT22;20292;50.944;4.034;2022-12-18T05:32:56;-3.50;99.90
31131;DHT22;20292;50.944;4.034;2022-12-18T05:35:21;-3.50;99.90
31131;DHT22;20292;50.944;4.034;2022-12-18T05:37:47;-3.50;99.90
31131;DHT22;20292;50.944;4.034;2022-12-18T05:40:12;-3.50;99.90
31131;DHT22;20292;50.944;4.034;2022-12-18T05:42:38;-3.30;99.90
31131;DHT22;20292;50.944;4.034;2022-12-18T05:45:04;-3.10;99.90
31131;DHT22;20292;50.944;4.034;2022-12-18T05:47:30;-3.10;99.90
31131;DHT22;20292;50.944;4.034;2022-12-18T05:49:55;-2.90;99.90
31131;DHT22;20292;50.944;4.034;2022-12-18T05:52:21;-2.70;99.90
31131;DHT22;20292;50.944;4.034;2022-12-18T05:54:47;-2.60;99.90
31131;DHT22;20292;50.944;4.034;2022-12-18T05:57:12;-2.50;99.90
31131;DHT22;20292;50.944;4.034;2022-12-18T05:59:38;-2.50;99.90
31131;DHT22;20292;50.944;4.034;2022-12-18T06:02:04;-2.50;99.90
31131;DHT22;20292;50.944;4.034;2022-12-18T06:04:29;-2.40;99.90
31131;DHT22;20292;50.944;4.034;2022-12-18T06:06:55;-2.40;99.90
31131;DHT22;20292;50.944;4.034;2022-12-18T06:09:20;-2.30;99.90
31131;DHT22;20292;50.944;4.034;2022-12-18T06:11:46;-2.40;99.90
31131;DHT22;20292;50.944;4.034;2022-12-18T06:14:11;-2.40;99.90
31131;DHT22;20292;50.944;4.034;2022-12-18T06:16:37;-2.50;99.90
31131;DHT22;20292;50.944;4.034;2022-12-18T06:19:04;-2.40;99.90
31131;DHT22;20292;50.944;4.034;2022-12-18T06:21:31;-2.40;99.90
31131;DHT22;20292;50.944;4.034;2022-12-18T06:23:57;-2.40;99.90
31131;DHT22;20292;50.944;4.034;2022-12-18T06:26:23;-2.30;99.90
31131;DHT22;20292;50.944;4.034;2022-12-18T06:28:49;-2.30;99.90
31131;DHT22;20292;50.944;4.034;2022-12-18T06:31:14;-2.20;99.90
31131;DHT22;20292;50.944;4.034;2022-12-18T06:33:41;-2.10;99.90
31131;DHT22;20292;50.944;4.034;2022-12-18T06:36:11;-2.20;99.90
31131;DHT22;20292;50.944;4.034;2022-12-18T06:38:41;-2.20;99.90
31131;DHT22;20292;50.944;4.034;2022-12-18T06:41:15;-2.30;99.90
31131;DHT22;20292;50.944;4.034;2022-12-18T06:43:41;-2.50;99.90
31131;DHT22;20292;50.944;4.034;2022-12-18T06:46:07;-2.60;99.90
31131;DHT22;20292;50.944;4.034;2022-12-18T06:48:33;-2.50;99.90
31131;DHT22;20292;50.944;4.034;2022-12-18T06:50:59;-2.60;99.90
31131;DHT22;20292;50.944;4.034;2022-12-18T06:53:26;-2.70;99.90
31131;DHT22;20292;50.944;4.034;2022-12-18T06:55:51;-2.80;99.90
31131;DHT22;20292;50.944;4.034;2022-12-18T06:58:17;-2.80;99.90
31131;DHT22;20292;50.944;4.034;2022-12-18T07:00:42;-2.90;99.90
31131;DHT22;20292;50.944;4.034;2022-12-18T07:03:08;-2.90;99.90
31131;DHT22;20292;50.944;4.034;2022-12-18T07:05:34;-2.90;99.90
31131;DHT22;20292;50.944;4.034;2022-12-18T07:07:59;-2.90;99.90
31131;DHT22;20292;50.944;4.034;2022-12-18T07:10:25;-3.10;99.90
31131;DHT22;20292;50.944;4.034;2022-12-18T07:12:51;-3.10;99.90
31131;DHT22;20292;50.944;4.034;2022-12-18T07:15:17;-3.10;99.90
31131;DHT22;20292;50.944;4.034;2022-12-18T07:17:42;-3.20;99.90
31131;DHT22;20292;50.944;4.034;2022-12-18T07:20:08;-3.40;99.90
31131;DHT22;20292;50.944;4.034;2022-12-18T07:22:34;-3.60;99.90
31131;DHT22;20292;50.944;4.034;2022-12-18T07:25:00;-3.40;99.90
31131;DHT22;20292;50.944;4.034;2022-12-18T07:27:25;-3.50;99.90
31131;DHT22;20292;50.944;4.034;2022-12-18T07:29:51;-3.50;99.90
31131;DHT22;20292;50.944;4.034;2022-12-18T07:32:16;-3.50;99.90
31131;DHT22;20292;50.944;4.034;2022-12-18T07:34:42;-3.50;99.90
31131;DHT22;20292;50.944;4.034;2022-12-18T07:37:07;-3.40;99.90
31131;DHT22;20292;50.944;4.034;2022-12-18T07:39:33;-3.40;99.90
31131;DHT22;20292;50.944;4.034;2022-12-18T07:41:58;-3.40;99.90
31131;DHT22;20292;50.944;4.034;2022-12-18T07:44:43;-3.10;99.90
31131;DHT22;20292;50.944;4.034;2022-12-18T07:47:08;-3.10;99.90
31131;DHT22;20292;50.944;4.034;2022-12-18T07:49:34;-3.00;99.90
31131;DHT22;20292;50.944;4.034;2022-12-18T07:51:59;-2.80;99.90
31131;DHT22;20292;50.944;4.034;2022-12-18T07:54:25;-2.60;99.90
31131;DHT22;20292;50.944;4.034;2022-12-18T07:56:51;-2.50;99.90
31131;DHT22;20292;50.944;4.034;2022-12-18T07:59:17;-2.40;99.90
31131;DHT22;20292;50.944;4.034;2022-12-18T08:01:43;-2.30;99.90
31131;DHT22;20292;50.944;4.034;2022-12-18T08:04:09;-2.20;99.90
31131;DHT22;20292;50.944;4.034;2022-12-18T08:06:34;-2.10;99.90
31131;DHT22;20292;50.944;4.034;2022-12-18T08:09:00;-2.10;99.90
31131;DHT22;20292;50.944;4.034;2022-12-18T08:11:27;-2.20;99.90
31131;DHT22;20292;50.944;4.034;2022-12-18T08:13:53;-2.10;99.90
31131;DHT22;20292;50.944;4.034;2022-12-18T08:16:20;-2.10;99.90
31131;DHT22;20292;50.944;4.034;2022-12-18T08:18:46;-2.00;99.90
31131;DHT22;20292;50.944;4.034;2022-12-18T08:21:16;-1.90;99.90
31131;DHT22;20292;50.944;4.034;2022-12-18T08:23:43;-1.80;99.90
31131;DHT22;20292;50.944;4.034;2022-12-18T08:26:10;-1.90;99.90
31131;DHT22;20292;50.944;4.034;2022-12-18T08:28:35;-1.80;99.90
31131;DHT22;20292;50.944;4.034;2022-12-18T08:31:01;-1.70;99.90
31131;DHT22;20292;50.944;4.034;2022-12-18T08:33:27;-1.70;99.90
31131;DHT22;20292;50.944;4.034;2022-12-18T08:35:53;-1.60;99.90
31131;DHT22;20292;50.944;4.034;2022-12-18T08:38:18;-1.60;99.90
31131;DHT22;20292;50.944;4.034;2022-12-18T08:40:45;-1.50;99.90
31131;DHT22;20292;50.944;4.034;2022-12-18T08:43:11;-1.50;99.90
31131;DHT22;20292;50.944;4.034;2022-12-18T08:45:55;-1.50;99.90
31131;DHT22;20292;50.944;4.034;2022-12-18T08:48:21;-1.50;99.90
31131;DHT22;20292;50.944;4.034;2022-12-18T08:50:56;-1.50;99.90
31131;DHT22;20292;50.944;4.034;2022-12-18T08:53:22;-1.60;99.90
31131;DHT22;20292;50.944;4.034;2022-12-18T08:55:48;-1.60;99.90
31131;DHT22;20292;50.944;4.034;2022-12-18T08:58:13;-1.50;99.90
31131;DHT22;20292;50.944;4.034;2022-12-18T09:00:39;-1.50;99.90
31131;DHT22;20292;50.944;4.034;2022-12-18T09:03:04;-1.40;99.90
31131;DHT22;20292;50.944;4.034;2022-12-18T09:05:30;-1.20;99.90
31131;DHT22;20292;50.944;4.034;2022-12-18T09:07:55;-1.00;99.90
31131;DHT22;20292;50.944;4.034;2022-12-18T09:10:21;-0.90;99.90
31131;DHT22;20292;50.944;4.034;2022-12-18T09:12:47;-0.80;99.90
31131;DHT22;20292;50.944;4.034;2022-12-18T09:15:13;-0.90;99.90
31131;DHT22;20292;50.944;4.034;2022-12-18T09:17:38;-1.10;99.90
31131;DHT22;20292;50.944;4.034;2022-12-18T09:20:04;-1.40;99.90
31131;DHT22;20292;50.944;4.034;2022-12-18T09:22:30;-1.60;99.90
31131;DHT22;20292;50.944;4.034;2022-12-18T09:24:56;-1.80;99.90
31131;DHT22;20292;50.944;4.034;2022-12-18T09:27:21;-1.90;99.90
31131;DHT22;20292;50.944;4.034;2022-12-18T09:29:47;-1.80;99.90
31131;DHT22;20292;50.944;4.034;2022-12-18T09:32:12;-1.60;99.90
31131;DHT22;20292;50.944;4.034;2022-12-18T09:34:38;-1.40;99.90
31131;DHT22;20292;50.944;4.034;2022-12-18T09:37:03;-1.20;99.90
31131;DHT22;20292;50.944;4.034;2022-12-18T09:39:29;-0.90;99.90
31131;DHT22;20292;50.944;4.034;2022-12-18T09:41:57;-0.60;99.90
31131;DHT22;20292;50.944;4.034;2022-12-18T09:44:29;-0.30;99.90
31131;DHT22;20292;50.944;4.034;2022-12-18T09:46:59;-0.20;99.90
31131;DHT22;20292;50.944;4.034;2022-12-18T09:49:27;-0.10;99.90
31131;DHT22;20292;50.944;4.034;2022-12-18T09:51:55;-0.10;99.90
31131;DHT22;20292;50.944;4.034;2022-12-18T09:54:27;0.10;99.90
31131;DHT22;20292;50.944;4.034;2022-12-18T09:56:55;-0.10;99.90
31131;DHT22;20292;50.944;4.034;2022-12-18T09:59:25;-0.30;99.90
31131;DHT22;20292;50.944;4.034;2022-12-18T10:01:51;-0.50;99.90
31131;DHT22;20292;50.944;4.034;2022-12-18T10:04:17;-0.30;99.90
31131;DHT22;20292;50.944;4.034;2022-12-18T10:07:03;0.00;99.90
31131;DHT22;20292;50.944;4.034;2022-12-18T10:09:37;0.00;99.90
31131;DHT22;20292;50.944;4.034;2022-12-18T10:12:52;0.00;99.90
31131;DHT22;20292;50.944;4.034;2022-12-18T10:21:14;0.40;99.90
31131;DHT22;20292;50.944;4.034;2022-12-18T10:24:12;0.50;99.90
31131;DHT22;20292;50.944;4.034;2022-12-18T10:26:41;0.70;99.90
31131;DHT22;20292;50.944;4.034;2022-12-18T10:29:12;1.00;99.90
31131;DHT22;20292;50.944;4.034;2022-12-18T10:31:38;1.30;99.90
31131;DHT22;20292;50.944;4.034;2022-12-18T10:34:04;1.50;99.90
31131;DHT22;20292;50.944;4.034;2022-12-18T10:36:32;1.70;99.90
31131;DHT22;20292;50.944;4.034;2022-12-18T10:39:18;1.80;99.90
31131;DHT22;20292;50.944;4.034;2022-12-18T10:41:44;1.90;99.90
31131;DHT22;20292;50.944;4.034;2022-12-18T10:44:23;2.10;99.90
31131;DHT22;20292;50.944;4.034;2022-12-18T10:47:02;2.20;99.90
31131;DHT22;20292;50.944;4.034;2022-12-18T10:49:33;2.30;99.90
31131;DHT22;20292;50.944;4.034;2022-12-18T10:52:18;2.30;99.90
31131;DHT22;20292;50.944;4.034;2022-12-18T10:54:52;2.40;99.90
31131;DHT22;20292;50.944;4.034;2022-12-18T10:57:37;2.50;99.90
31131;DHT22;20292;50.944;4.034;2022-12-18T11:00:27;2.60;99.90
31131;DHT22;20292;50.944;4.034;2022-12-18T11:02:53;2.70;99.90
31131;DHT22;20292;50.944;4.034;2022-12-18T11:05:33;2.80;99.90
31131;DHT22;20292;50.944;4.034;2022-12-18T11:08:02;2.80;99.90
31131;DHT22;20292;50.944;4.034;2022-12-18T11:10:41;2.90;99.90
31131;DHT22;20292;50.944;4.034;2022-12-18T11:13:17;2.90;99.90
31131;DHT22;20292;50.944;4.034;2022-12-18T11:15:44;3.00;99.90
31131;DHT22;20292;50.944;4.034;2022-12-18T11:20:59;3.10;99.90
31131;DHT22;20292;50.944;4.034;2022-12-18T11:23:27;3.10;99.90
31131;DHT22;20292;50.944;4.034;2022-12-18T11:25:58;3.00;99.90
31131;DHT22;20292;50.944;4.034;2022-12-18T11:28:28;3.00;99.90
31131;DHT22;20292;50.944;4.034;2022-12-18T11:31:26;3.10;99.90
31131;DHT22;20292;50.944;4.034;2022-12-18T11:34:16;3.10;99.90
31131;DHT22;20292;50.944;4.034;2022-12-18T11:36:46;3.10;99.90
31131;DHT22;20292;50.944;4.034;2022-12-18T11:42:10;3.20;99.90
31131;DHT22;20292;50.944;4.034;2022-12-18T11:44:45;3.30;99.90
31131;DHT22;20292;50.944;4.034;2022-12-18T11:49:43;3.40;99.90
31131;DHT22;20292;50.944;4.034;2022-12-18T11:54:43;3.50;99.90
31131;DHT22;20292;50.944;4.034;2022-12-18T11:57:27;3.50;99.90
31131;DHT22;20292;50.944;4.034;2022-12-18T12:00:16;3.70;99.90
31131;DHT22;20292;50.944;4.034;2022-12-18T12:03:24;3.80;99.90
31131;DHT22;20292;50.944;4.034;2022-12-18T12:08:49;3.70;99.90
31131;DHT22;20292;50.944;4.034;2022-12-18T12:13:56;3.60;99.90
31131;DHT22;20292;50.944;4.034;2022-12-18T12:16:54;3.60;99.90
31131;DHT22;20292;50.944;4.034;2022-12-18T12:22:16;3.50;99.90
31131;DHT22;20292;50.944;4.034;2022-12-18T12:30:18;3.70;99.90
31131;DHT22;20292;50.944;4.034;2022-12-18T12:35:57;3.70;99.90
31131;DHT22;20292;50.944;4.034;2022-12-18T12:38:25;3.60;99.90
31131;DHT22;20292;50.944;4.034;2022-12-18T12:40:56;3.50;99.90
31131;DHT22;20292;50.944;4.034;2022-12-18T12:43:42;3.50;99.90
31131;DHT22;20292;50.944;4.034;2022-12-18T12:46:12;3.40;99.90
31131;DHT22;20292;50.944;4.034;2022-12-18T12:48:48;3.30;99.90
31131;DHT22;20292;50.944;4.034;2022-12-18T12:51:25;3.40;99.90
31131;DHT22;20292;50.944;4.034;2022-12-18T12:53:52;3.30;99.90
31131;DHT22;20292;50.944;4.034;2022-12-18T12:56:19;3.40;99.90
31131;DHT22;20292;50.944;4.034;2022-12-18T12:59:13;3.40;99.90
31131;DHT22;20292;50.944;4.034;2022-12-18T13:04:23;3.60;99.90
31131;DHT22;20292;50.944;4.034;2022-12-18T13:07:03;3.60;99.90
31131;DHT22;20292;50.944;4.034;2022-12-18T13:09:33;3.50;99.90
31131;DHT22;20292;50.944;4.034;2022-12-18T13:12:11;3.50;99.90
31131;DHT22;20292;50.944;4.034;2022-12-18T13:15:20;3.50;99.90
31131;DHT22;20292;50.944;4.034;2022-12-18T13:17:46;3.50;99.90
31131;DHT22;20292;50.944;4.034;2022-12-18T13:20:13;3.50;99.90
31131;DHT22;20292;50.944;4.034;2022-12-18T13:22:46;3.40;99.90
31131;DHT22;20292;50.944;4.034;2022-12-18T13:25:33;3.50;99.90
31131;DHT22;20292;50.944;4.034;2022-12-18T13:35:41;3.70;99.90
31131;DHT22;20292;50.944;4.034;2022-12-18T13:38:34;3.70;99.90
31131;DHT22;20292;50.944;4.034;2022-12-18T13:46:29;3.70;99.90
31131;DHT22;20292;50.944;4.034;2022-12-18T13:51:27;3.70;99.90
31131;DHT22;20292;50.944;4.034;2022-12-18T13:54:02;3.70;99.90
31131;DHT22;20292;50.944;4.034;2022-12-18T13:56:32;3.60;99.90
31131;DHT22;20292;50.944;4.034;2022-12-18T13:59:13;3.50;99.90
31131;DHT22;20292;50.944;4.034;2022-12-18T14:01:55;3.50;99.90
31131;DHT22;20292;50.944;4.034;2022-12-18T14:04:27;3.50;99.90
31131;DHT22;20292;50.944;4.034;2022-12-18T14:07:05;3.50;99.90
31131;DHT22;20292;50.944;4.034;2022-12-18T14:09:35;3.40;99.90
31131;DHT22;20292;50.944;4.034;2022-12-18T14:12:02;3.40;99.90
31131;DHT22;20292;50.944;4.034;2022-12-18T14:14:56;3.30;99.90
31131;DHT22;20292;50.944;4.034;2022-12-18T14:17:22;3.30;99.90
31131;DHT22;20292;50.944;4.034;2022-12-18T14:19:50;3.20;99.90
31131;DHT22;20292;50.944;4.034;2022-12-18T14:22:21;3.20;99.90
31131;DHT22;20292;50.944;4.034;2022-12-18T14:27:44;3.20;99.90
31131;DHT22;20292;50.944;4.034;2022-12-18T14:30:30;3.20;99.90
31131;DHT22;20292;50.944;4.034;2022-12-18T14:35:51;3.20;99.90
31131;DHT22;20292;50.944;4.034;2022-12-18T14:38:24;3.10;99.90
31131;DHT22;20292;50.944;4.034;2022-12-18T14:40:58;3.00;99.90
31131;DHT22;20292;50.944;4.034;2022-12-18T14:43:24;2.90;99.90
31131;DHT22;20292;50.944;4.034;2022-12-18T14:45:51;2.90;99.90
31131;DHT22;20292;50.944;4.034;2022-12-18T14:48:20;2.90;99.90
31131;DHT22;20292;50.944;4.034;2022-12-18T14:51:01;2.80;99.90
31131;DHT22;20292;50.944;4.034;2022-12-18T14:53:40;2.80;99.90
31131;DHT22;20292;50.944;4.034;2022-12-18T14:56:21;2.80;99.90
31131;DHT22;20292;50.944;4.034;2022-12-18T14:59:14;2.70;99.90
31131;DHT22;20292;50.944;4.034;2022-12-18T15:04:35;2.70;99.90
31131;DHT22;20292;50.944;4.034;2022-12-18T15:09:34;2.80;99.90
31131;DHT22;20292;50.944;4.034;2022-12-18T15:12:01;2.70;99.90
31131;DHT22;20292;50.944;4.034;2022-12-18T15:16:55;2.80;99.90
31131;DHT22;20292;50.944;4.034;2022-12-18T15:19:22;2.90;99.90
31131;DHT22;20292;50.944;4.034;2022-12-18T15:21:50;2.90;99.90
31131;DHT22;20292;50.944;4.034;2022-12-18T15:24:27;3.00;99.90
31131;DHT22;20292;50.944;4.034;2022-12-18T15:26:53;2.90;99.90
31131;DHT22;20292;50.944;4.034;2022-12-18T15:29:20;2.90;99.90
31131;DHT22;20292;50.944;4.034;2022-12-18T15:32:02;2.90;99.90
31131;DHT22;20292;50.944;4.034;2022-12-18T15:34:28;3.00;99.90
31131;DHT22;20292;50.944;4.034;2022-12-18T15:36:54;3.10;99.90
31131;DHT22;20292;50.944;4.034;2022-12-18T15:39:20;3.10;99.90
31131;DHT22;20292;50.944;4.034;2022-12-18T15:41:45;3.10;99.90
31131;DHT22;20292;50.944;4.034;2022-12-18T15:44:30;3.10;99.90
31131;DHT22;20292;50.944;4.034;2022-12-18T15:46:56;3.10;99.90
31131;DHT22;20292;50.944;4.034;2022-12-18T15:49:21;3.20;99.90
31131;DHT22;20292;50.944;4.034;2022-12-18T15:51:52;3.20;99.90
31131;DHT22;20292;50.944;4.034;2022-12-18T15:54:18;3.20;99.90
31131;DHT22;20292;50.944;4.034;2022-12-18T15:57:04;3.20;99.90
31131;DHT22;20292;50.944;4.034;2022-12-18T15:59:48;3.10;99.90
31131;DHT22;20292;50.944;4.034;2022-12-18T16:02:16;3.00;99.90
31131;DHT22;20292;50.944;4.034;2022-12-18T16:04:42;3.00;99.90
31131;DHT22;20292;50.944;4.034;2022-12-18T16:07:09;3.10;99.90
31131;DHT22;20292;50.944;4.034;2022-12-18T16:09:34;3.10;99.90
31131;DHT22;20292;50.944;4.034;2022-12-18T16:12:00;3.20;99.90
31131;DHT22;20292;50.944;4.034;2022-12-18T16:14:28;3.30;99.90
31131;DHT22;20292;50.944;4.034;2022-12-18T16:17:00;3.30;99.90
31131;DHT22;20292;50.944;4.034;2022-12-18T16:19:27;3.30;99.90
31131;DHT22;20292;50.944;4.034;2022-12-18T16:21:55;3.30;99.90
31131;DHT22;20292;50.944;4.034;2022-12-18T16:24:25;3.30;99.90
31131;DHT22;20292;50.944;4.034;2022-12-18T16:26:52;3.30;99.90
31131;DHT22;20292;50.944;4.034;2022-12-18T16:29:19;3.30;99.90
31131;DHT22;20292;50.944;4.034;2022-12-18T16:31:45;3.40;99.90
31131;DHT22;20292;50.944;4.034;2022-12-18T16:34:25;3.30;99.90
31131;DHT22;20292;50.944;4.034;2022-12-18T16:36:55;3.40;99.90
31131;DHT22;20292;50.944;4.034;2022-12-18T16:39:21;3.50;99.90
31131;DHT22;20292;50.944;4.034;2022-12-18T16:41:47;3.50;99.90
31131;DHT22;20292;50.944;4.034;2022-12-18T16:44:13;3.60;99.90
31131;DHT22;20292;50.944;4.034;2022-12-18T16:46:40;3.60;99.90
31131;DHT22;20292;50.944;4.034;2022-12-18T16:49:08;3.60;99.90
31131;DHT22;20292;50.944;4.034;2022-12-18T16:51:34;3.60;99.90
31131;DHT22;20292;50.944;4.034;2022-12-18T16:54:00;3.50;99.90
31131;DHT22;20292;50.944;4.034;2022-12-18T16:56:25;3.60;99.90
31131;DHT22;20292;50.944;4.034;2022-12-18T16:58:56;3.60;99.90
31131;DHT22;20292;50.944;4.034;2022-12-18T17:01:22;3.60;99.90
31131;DHT22;20292;50.944;4.034;2022-12-18T17:03:53;3.60;99.90
31131;DHT22;20292;50.944;4.034;2022-12-18T17:06:23;3.60;99.90
31131;DHT22;20292;50.944;4.034;2022-12-18T17:08:57;3.50;99.90
31131;DHT22;20292;50.944;4.034;2022-12-18T17:11:24;3.50;99.90
31131;DHT22;20292;50.944;4.034;2022-12-18T17:13:50;3.40;99.90
31131;DHT22;20292;50.944;4.034;2022-12-18T17:16:16;3.40;99.90
31131;DHT22;20292;50.944;4.034;2022-12-18T17:18:42;3.40;99.90
31131;DHT22;20292;50.944;4.034;2022-12-18T17:21:09;3.40;99.90
31131;DHT22;20292;50.944;4.034;2022-12-18T17:23:35;3.50;99.90
31131;DHT22;20292;50.944;4.034;2022-12-18T17:26:02;3.50;99.90
31131;DHT22;20292;50.944;4.034;2022-12-18T17:28:29;3.40;99.90
31131;DHT22;20292;50.944;4.034;2022-12-18T17:30:55;3.50;99.90
31131;DHT22;20292;50.944;4.034;2022-12-18T17:33:22;3.60;99.90